Terminal Aerodrome Forecast
Issued by NWS

Home | Current Version | Previous Version | Text Only | Print | Product List | Glossary On
Versions: 1 2 3 4 5 6 7 8 9 10 11 12 13 14 15 16 17 18 19 20 21 22 23 24 25 26 27 28 29 30 31 32 33 34 35 36 37 38 39 40 41 42
000
FTUS41 KBOX 231723
TAFACK
TAF
KACK 231723Z 2318/2418 21014G20KT P6SM SCT050
     FM240200 22012KT 5SM BR SCT050
     FM240400 22011KT 3SM BR BKN050
     FM240600 22008KT 2SM -SHRA BR BKN003
     FM241200 32006KT 3SM BR OVC003=

USA.gov is the U.S. government's official web portal to all federal, state and local government web resources and services.